Time;durP1;ratioP1;P1;durP2;ratioP2;P2;SDS_P1;SDS_P2;PMS_P1;PMS_P2;Temp;Humidity;BMP_temperature;BMP_pressure;BME280_temperature;BME280_humidity;BME280_pressure;Samples;Min_cycle;Max_cycle;Signal;HPM_P1;HPM_P2
2022/09/24 00:01:47;;;;;;;;;;;;;;;13.35;95.33;101309.47;5095086;28;19931;-35
2022/09/24 00:04:12;;;;;;;;;;;;;;;13.32;95.53;101313.50;5094662;28;19916;-34
2022/09/24 00:06:43;;;;;;;;;;;;;;;13.32;94.87;101309.94;5094635;28;20318;-34
2022/09/24 00:09:09;;;;;;;;;;;;;;;13.31;95.37;101309.09;5094099;28;19959;-34
2022/09/24 00:11:34;;;;;;;;;;;;;;;13.29;95.12;101310.44;5094925;28;19978;-34
2022/09/24 00:13:59;;;;;;;;;;;;;;;13.27;96.95;101304.38;5094230;28;19916;-34
2022/09/24 00:16:26;;;;;;;;;;;;;;;13.25;96.10;101310.06;5094847;28;19965;-34
2022/09/24 00:18:52;;;;;;;;;;;;;;;13.22;96.75;101299.66;5094720;28;19916;-34
2022/09/24 00:21:22;;;;;;;;;;;;;;;13.21;96.28;101298.00;5094164;28;19961;-34
2022/09/24 00:23:49;;;;;;;;;;;;;;;13.20;96.97;101290.91;5094119;28;19916;-34
2022/09/24 00:28:59;;;;;;;;;;;;;;;13.17;97.34;101290.56;5094630;28;19963;-34
2022/09/24 00:31:24;;;;;;;;;;;;;;;13.11;97.74;101285.00;5094061;28;19968;-34
2022/09/24 00:33:51;;;;;;;;;;;;;;;13.11;97.08;101282.28;5094844;28;19917;-34
2022/09/24 00:36:16;;;;;;;;;;;;;;;13.10;96.01;101286.06;5094746;28;20030;-35
2022/09/24 00:38:41;;;;;;;;;;;;;;;13.10;96.18;101282.53;5093987;28;19916;-34
2022/09/24 00:41:07;;;;;;;;;;;;;;;13.09;96.78;101286.31;5093707;28;19974;-34
2022/09/24 00:43:33;;;;;;;;;;;;;;;13.07;96.80;101281.09;5094105;28;19916;-34
2022/09/24 00:46:30;;;;;;;;;;;;;;;13.07;96.22;101270.25;5093531;28;20011;-34
2022/09/24 00:48:59;;;;;;;;;;;;;;;13.06;97.05;101275.94;5031946;28;19948;-34
2022/09/24 00:51:25;;;;;;;;;;;;;;;13.06;97.88;101270.50;5031102;28;20022;-34
2022/09/24 00:53:54;;;;;;;;;;;;;;;13.06;96.36;101273.22;5031798;28;19995;-34
2022/09/24 00:56:21;;;;;;;;;;;;;;;13.06;97.81;101268.59;5031041;28;19928;-34
2022/09/24 00:58:51;;;;;;;;;;;;;;;13.05;96.84;101269.69;5031653;28;19948;-34
2022/09/24 01:01:17;;;;;;;;;;;;;;;13.04;96.63;101270.75;5014843;28;20085;-34
2022/09/24 01:03:42;;;;;;;;;;;;;;;13.05;96.93;101260.69;5031167;28;20019;-34
2022/09/24 01:06:08;;;;;;;;;;;;;;;13.05;96.08;101258.81;5030570;28;20014;-34
2022/09/24 01:08:33;;;;;;;;;;;;;;;13.04;97.17;101265.31;5031744;28;19923;-34
2022/09/24 01:11:01;;;;;;;;;;;;;;;13.02;99.00;101255.75;5030929;28;19917;-34
2022/09/24 01:13:27;;;;;;;;;;;;;;;12.99;97.77;101251.63;5031568;28;19917;-34
2022/09/24 01:16:05;;;;;;;;;;;;;;;12.98;98.83;101247.25;5030983;28;20023;-34
2022/09/24 01:18:35;;;;;;;;;;;;;;;12.96;97.61;101241.22;5031334;28;20384;-34
2022/09/24 01:21:08;;;;;;;;;;;;;;;12.97;98.93;101248.31;5031041;28;19927;-34
2022/09/24 01:23:42;;;;;;;;;;;;;;;12.96;98.60;101240.41;5037908;28;19917;-34
2022/09/24 01:26:18;;;;;;;;;;;;;;;12.95;98.25;101239.59;5094025;28;20264;-34
2022/09/24 01:29:05;;;;;;;;;;;;;;;12.97;97.67;101237.44;5093042;28;20025;-34
2022/09/24 01:31:33;;;;;;;;;;;;;;;13.00;97.17;101236.16;5093725;28;20494;-34
2022/09/24 01:34:00;;;;;;;;;;;;;;;12.99;97.40;101232.63;5094058;28;20256;-34
2022/09/24 01:36:27;;;;;;;;;;;;;;;12.99;97.06;101227.19;5093467;28;20303;-34
2022/09/24 01:38:53;;;;;;;;;;;;;;;13.01;97.34;101232.38;5092931;28;20376;-34
2022/09/24 01:41:20;;;;;;;;;;;;;;;12.98;98.19;101236.41;5093211;28;19922;-34
2022/09/24 01:43:47;;;;;;;;;;;;;;;12.97;98.35;101232.00;5093944;28;19961;-34
2022/09/24 01:46:15;;;;;;;;;;;;;;;12.98;100.00;101225.56;5093703;28;19923;-35
2022/09/24 01:48:41;;;;;;;;;;;;;;;12.93;100.00;101224.59;5094200;28;20075;-34
2022/09/24 01:51:13;;;;;;;;;;;;;;;12.91;99.37;101224.00;5093128;28;19962;-34
2022/09/24 01:53:52;;;;;;;;;;;;;;;12.89;99.06;101224.25;5093054;28;19916;-34
2022/09/24 01:56:23;;;;;;;;;;;;;;;12.89;99.43;101219.66;5093029;28;19938;-34
2022/09/24 01:58:50;;;;;;;;;;;;;;;12.87;99.99;101216.31;5093550;28;20238;-34
2022/09/24 02:01:23;;;;;;;;;;;;;;;12.89;100.00;101213.41;5093272;28;19923;-34
2022/09/24 02:03:55;;;;;;;;;;;;;;;12.88;99.04;101211.72;5093139;28;19916;-34
2022/09/24 02:06:24;;;;;;;;;;;;;;;12.88;99.11;101215.28;5093045;28;19927;-34
2022/09/24 02:08:49;;;;;;;;;;;;;;;12.90;98.66;101209.63;5092725;28;19916;-34
2022/09/24 02:11:21;;;;;;;;;;;;;;;12.92;98.63;101204.75;5092918;28;19923;-34
2022/09/24 02:13:52;;;;;;;;;;;;;;;12.92;98.12;101207.47;5093714;28;20272;-34
2022/09/24 02:16:20;;;;;;;;;;;;;;;12.93;98.16;101203.69;5093615;28;20292;-34
2022/09/24 02:18:47;;;;;;;;;;;;;;;12.93;99.14;101209.13;5094597;28;20011;-34
2022/09/24 02:21:14;;;;;;;;;;;;;;;12.92;98.81;101207.47;5096757;28;19923;-34
2022/09/24 02:23:41;;;;;;;;;;;;;;;12.92;99.66;101201.22;5097270;28;19916;-34
2022/09/24 02:26:07;;;;;;;;;;;;;;;12.91;99.46;101205.00;5096443;28;20326;-34
2022/09/24 02:28:33;;;;;;;;;;;;;;;12.91;98.80;101199.56;5096951;28;19942;-34
2022/09/24 02:31:04;;;;;;;;;;;;;;;12.91;99.46;101200.41;5096316;28;20356;-34
2022/09/24 02:36:16;;;;;;;;;;;;;;;12.91;99.81;101197.69;5096857;28;19965;-34
2022/09/24 02:38:42;;;;;;;;;;;;;;;12.91;99.16;101199.56;5096756;28;19999;-34
2022/09/24 02:41:07;;;;;;;;;;;;;;;12.88;100.00;101196.28;5096054;28;19923;-35
2022/09/24 02:43:34;;;;;;;;;;;;;;;12.89;98.98;101192.50;5096912;28;19991;-34
2022/09/24 02:46:00;;;;;;;;;;;;;;;12.89;99.08;101187.06;5096277;28;20352;-34
2022/09/24 02:48:25;;;;;;;;;;;;;;;12.88;100.00;101184.56;5096874;28;19916;-35
2022/09/24 02:50:50;;;;;;;;;;;;;;;12.87;100.00;101182.94;5096863;28;19917;-34
2022/09/24 02:53:15;;;;;;;;;;;;;;;12.83;100.00;101179.88;5096501;28;19916;-34
2022/09/24 02:55:40;;;;;;;;;;;;;;;12.83;100.00;101181.75;5096267;28;19916;-34
2022/09/24 02:58:06;;;;;;;;;;;;;;;12.81;100.00;101176.56;5095714;28;20284;-35
2022/09/24 03:00:31;;;;;;;;;;;;;;;12.81;100.00;101175.75;5095749;28;19916;-34
2022/09/24 03:02:56;;;;;;;;;;;;;;;12.82;100.00;101182.81;5095594;28;19916;-34
2022/09/24 03:05:21;;;;;;;;;;;;;;;12.82;100.00;101185.53;5095623;28;19923;-34
2022/09/24 03:07:46;;;;;;;;;;;;;;;12.82;100.00;101185.53;5096463;28;19916;-34
2022/09/24 03:10:12;;;;;;;;;;;;;;;12.84;99.52;101178.00;5096589;28;19922;-34
2022/09/24 03:12:37;;;;;;;;;;;;;;;12.86;100.00;101178.56;5096414;28;19916;-34
2022/09/24 03:15:03;;;;;;;;;;;;;;;12.85;100.00;101172.31;5095531;28;20424;-34
2022/09/24 03:17:28;;;;;;;;;;;;;;;12.86;100.00;101173.16;5095168;28;19939;-34
2022/09/24 03:19:53;;;;;;;;;;;;;;;12.84;100.00;101172.56;5096066;28;19920;-34
2022/09/24 03:22:18;;;;;;;;;;;;;;;12.84;100.00;101169.84;5095365;28;20003;-34
2022/09/24 03:24:44;;;;;;;;;;;;;;;12.82;100.00;101164.66;5095035;28;20023;-34
2022/09/24 03:27:09;;;;;;;;;;;;;;;12.81;100.00;101165.72;5095624;28;19978;-34
2022/09/24 03:32:18;;;;;;;;;;;;;;;12.80;100.00;101168.69;5095798;28;19958;-34
2022/09/24 03:34:44;;;;;;;;;;;;;;;12.80;100.00;101160.53;5095407;28;20333;-34
2022/09/24 03:37:09;;;;;;;;;;;;;;;12.78;100.00;101158.03;5095648;28;19916;-34
2022/09/24 03:39:34;;;;;;;;;;;;;;;12.80;100.00;101163.25;5095491;28;19916;-33
2022/09/24 03:41:59;;;;;;;;;;;;;;;12.80;100.00;101161.34;5095109;28;19923;-34
2022/09/24 03:44:26;;;;;;;;;;;;;;;12.82;100.00;101170.06;5076787;28;19916;-34
2022/09/24 03:46:51;;;;;;;;;;;;;;;12.82;100.00;101163.81;5094931;28;20413;-34
2022/09/24 03:49:16;;;;;;;;;;;;;;;12.81;100.00;101163.00;5094806;28;19916;-34
2022/09/24 03:51:41;;;;;;;;;;;;;;;12.80;100.00;101161.34;5095422;28;19941;-34
2022/09/24 03:54:07;;;;;;;;;;;;;;;12.80;100.00;101155.09;5095297;28;19923;-34
2022/09/24 03:56:32;;;;;;;;;;;;;;;12.79;100.00;101156.19;5095085;28;19916;-33
2022/09/24 03:58:57;;;;;;;;;;;;;;;12.79;100.00;101156.19;5094787;28;19965;-34
2022/09/24 04:01:22;;;;;;;;;;;;;;;12.78;100.00;101149.91;5094521;28;19923;-34
2022/09/24 04:03:48;;;;;;;;;;;;;;;12.78;100.00;101151.78;5095176;28;19916;-34
2022/09/24 04:06:14;;;;;;;;;;;;;;;12.77;100.00;101145.53;5094512;28;19924;-34
2022/09/24 04:08:39;;;;;;;;;;;;;;;12.77;100.00;101148.25;5076768;28;19965;-34
2022/09/24 04:11:04;;;;;;;;;;;;;;;12.77;100.00;101150.97;5094225;28;19993;-34
2022/09/24 04:13:30;;;;;;;;;;;;;;;12.74;100.00;101150.66;5094272;28;19916;-34
2022/09/24 04:15:59;;;;;;;;;;;;;;;12.73;100.00;101141.66;5094021;28;20284;-34
2022/09/24 04:18:25;;;;;;;;;;;;;;;12.73;100.00;101149.78;5094072;28;19955;-34
2022/09/24 04:20:50;;;;;;;;;;;;;;;12.72;100.00;101141.91;5094833;28;19970;-34
2022/09/24 04:23:15;;;;;;;;;;;;;;;12.71;100.00;101142.97;5094712;28;20023;-33
2022/09/24 04:25:40;;;;;;;;;;;;;;;12.72;100.00;101141.91;5094945;28;19916;-33
2022/09/24 04:28:07;;;;;;;;;;;;;;;12.71;100.00;101134.81;5094204;28;20352;-34
2022/09/24 04:30:33;;;;;;;;;;;;;;;12.71;100.00;101132.94;5094133;28;19923;-34
2022/09/24 04:32:59;;;;;;;;;;;;;;;12.71;100.00;101132.09;5094868;28;19916;-34
2022/09/24 04:35:25;;;;;;;;;;;;;;;12.72;100.00;101131.88;5094579;28;19923;-34
2022/09/24 04:37:50;;;;;;;;;;;;;;;12.75;100.00;101131.41;5094268;28;19916;-34
2022/09/24 04:40:16;;;;;;;;;;;;;;;12.73;100.00;101132.69;5093604;28;19962;-34
2022/09/24 04:42:43;;;;;;;;;;;;;;;12.71;100.00;101127.50;5093320;28;19916;-34
2022/09/24 04:45:09;;;;;;;;;;;;;;;12.72;100.00;101136.47;5094751;28;20332;-33
2022/09/24 04:47:35;;;;;;;;;;;;;;;12.72;100.00;101131.88;5094383;28;19923;-34
2022/09/24 04:50:03;;;;;;;;;;;;;;;12.73;100.00;101138.94;5094009;28;19923;-34
2022/09/24 04:52:31;;;;;;;;;;;;;;;12.74;100.00;101132.47;5093607;28;19924;-33
2022/09/24 04:54:56;;;;;;;;;;;;;;;12.73;100.00;101135.41;5093721;28;19916;-34
2022/09/24 04:57:22;;;;;;;;;;;;;;;12.71;100.00;101130.22;5093972;28;19923;-34
2022/09/24 04:59:47;;;;;;;;;;;;;;;12.72;100.00;101131.03;5093152;28;20279;-33
2022/09/24 05:02:15;;;;;;;;;;;;;;;12.70;100.00;101127.75;5093150;28;20150;-34
2022/09/24 05:04:42;;;;;;;;;;;;;;;12.69;100.00;101128.78;5093255;28;20011;-34
2022/09/24 05:07:08;;;;;;;;;;;;;;;12.69;100.00;101128.78;5093760;28;20102;-34
2022/09/24 05:09:33;;;;;;;;;;;;;;;12.68;100.00;101135.28;5093429;28;19923;-34
2022/09/24 05:11:59;;;;;;;;;;;;;;;12.63;100.00;101134.09;5093641;28;19916;-34
2022/09/24 05:14:24;;;;;;;;;;;;;;;12.62;100.00;101132.47;5075165;28;19916;-34
2022/09/24 05:16:49;;;;;;;;;;;;;;;12.61;100.00;101124.56;5093846;28;19920;-34
2022/09/24 05:19:14;;;;;;;;;;;;;;;12.58;100.00;101130.47;5092950;28;20008;-34
2022/09/24 05:21:40;;;;;;;;;;;;;;;12.58;100.00;101136.72;5093774;28;19916;-33
2022/09/24 05:24:05;;;;;;;;;;;;;;;12.58;100.00;101142.13;5093903;28;19939;-34
2022/09/24 05:29:14;;;;;;;;;;;;;;;12.56;100.00;101138.84;5093522;28;20031;-33
2022/09/24 05:31:39;;;;;;;;;;;;;;;12.58;100.00;101141.31;5094066;28;19959;-33
2022/09/24 05:34:04;;;;;;;;;;;;;;;12.59;100.00;101138.38;5093848;28;19999;-34
2022/09/24 05:36:30;;;;;;;;;;;;;;;12.61;100.00;101138.13;5093218;28;19916;-34
2022/09/24 05:38:55;;;;;;;;;;;;;;;12.60;100.00;101139.22;5093207;28;20295;-34
2022/09/24 05:41:20;;;;;;;;;;;;;;;12.62;100.00;101137.88;5093208;28;19916;-34
2022/09/24 05:43:45;;;;;;;;;;;;;;;12.63;100.00;101144.13;5092913;28;19923;-34
2022/09/24 05:46:11;;;;;;;;;;;;;;;12.63;100.00;101144.97;5093420;28;19969;-34
2022/09/24 05:48:36;;;;;;;;;;;;;;;12.65;100.00;101139.31;5093493;28;19916;-34
2022/09/24 05:51:01;;;;;;;;;;;;;;;12.68;100.00;101151.56;5092841;28;20320;-34
2022/09/24 05:53:27;;;;;;;;;;;;;;;12.67;100.00;101155.34;5096034;28;19917;-34
2022/09/24 05:55:52;;;;;;;;;;;;;;;12.67;100.00;101147.22;5097028;28;19951;-34
2022/09/24 05:58:17;;;;;;;;;;;;;;;12.67;100.00;101150.75;5097054;28;19920;-34
2022/09/24 06:00:44;;;;;;;;;;;;;;;12.67;100.00;101148.03;5096868;28;19927;-34
2022/09/24 06:03:13;;;;;;;;;;;;;;;12.67;100.00;101152.63;5096976;28;20035;-34
2022/09/24 06:05:42;;;;;;;;;;;;;;;12.65;100.00;101154.78;5097284;28;19916;-34
2022/09/24 06:08:07;;;;;;;;;;;;;;;12.64;100.00;101159.38;5096535;28;19916;-34
2022/09/24 06:10:33;;;;;;;;;;;;;;;12.65;100.00;101157.50;5096786;28;20123;-34
2022/09/24 06:12:58;;;;;;;;;;;;;;;12.65;100.00;101157.50;5096503;28;20010;-34
2022/09/24 06:15:25;;;;;;;;;;;;;;;12.63;100.00;101158.53;5096605;28;19920;-34
2022/09/24 06:17:51;;;;;;;;;;;;;;;12.63;100.00;101158.53;5096609;28;19919;-34
2022/09/24 06:20:17;;;;;;;;;;;;;;;12.63;100.00;101158.53;5096691;28;19916;-34
2022/09/24 06:22:42;;;;;;;;;;;;;;;12.64;100.00;101164.81;5097192;28;20074;-33
2022/09/24 06:25:07;;;;;;;;;;;;;;;12.63;100.00;101160.41;5096605;28;20427;-34
2022/09/24 06:27:32;;;;;;;;;;;;;;;12.63;100.00;101158.53;5096282;28;19916;-34
2022/09/24 06:29:58;;;;;;;;;;;;;;;12.66;100.00;101159.13;5096847;28;19916;-34
2022/09/24 06:32:23;;;;;;;;;;;;;;;12.66;100.00;101161.84;5097089;28;19942;-34
2022/09/24 06:34:48;;;;;;;;;;;;;;;12.63;100.00;101165.84;5096379;28;20363;-35
2022/09/24 06:37:14;;;;;;;;;;;;;;;12.65;100.00;101169.16;5096273;28;19916;-34
2022/09/24 06:39:39;;;;;;;;;;;;;;;12.68;100.00;101165.97;5096246;28;20237;-34
2022/09/24 06:42:05;;;;;;;;;;;;;;;12.69;100.00;101174.91;5096507;28;19927;-34
2022/09/24 06:44:31;;;;;;;;;;;;;;;12.70;100.00;101172.00;5096205;28;20473;-34
2022/09/24 06:46:56;;;;;;;;;;;;;;;12.73;100.00;101170.69;5078300;28;19916;-33
2022/09/24 06:49:21;;;;;;;;;;;;;;;12.73;100.00;101171.50;5095802;28;19927;-34
2022/09/24 06:51:47;;;;;;;;;;;;;;;12.73;100.00;101181.53;5095693;28;19916;-34
2022/09/24 06:54:12;;;;;;;;;;;;;;;12.70;100.00;101179.31;5095583;28;19943;-34
2022/09/24 06:56:37;;;;;;;;;;;;;;;12.70;100.00;101176.59;5096068;28;20387;-34
2022/09/24 06:59:02;;;;;;;;;;;;;;;12.71;100.00;101175.53;5096281;28;20344;-34
2022/09/24 07:01:28;;;;;;;;;;;;;;;12.72;100.00;101185.31;5096183;28;19941;-34
2022/09/24 07:03:53;;;;;;;;;;;;;;;12.71;100.00;101178.25;5095252;28;20296;-34
2022/09/24 07:06:18;;;;;;;;;;;;;;;12.70;100.00;101182.84;5095104;28;19920;-34
2022/09/24 07:08:44;;;;;;;;;;;;;;;12.73;100.00;101181.53;5095951;28;19924;-34
2022/09/24 07:11:11;;;;;;;;;;;;;;;12.72;100.00;101182.59;5094736;28;20337;-34
2022/09/24 07:13:37;;;;;;;;;;;;;;;12.72;100.00;101183.41;5096145;28;19920;-35
2022/09/24 07:16:02;;;;;;;;;;;;;;;12.73;100.00;101193.19;5096025;28;20257;-34
2022/09/24 07:18:27;;;;;;;;;;;;;;;12.74;100.00;101183.22;5095834;28;19916;-34
2022/09/24 07:20:53;;;;;;;;;;;;;;;12.75;100.00;101187.56;5095241;28;19916;-34
2022/09/24 07:23:19;;;;;;;;;;;;;;;12.73;100.00;101195.91;5095458;28;19980;-34
2022/09/24 07:25:44;;;;;;;;;;;;;;;12.72;100.00;101193.44;5095078;28;19998;-34
2022/09/24 07:28:12;;;;;;;;;;;;;;;12.72;100.00;101196.16;5096078;28;20012;-34
2022/09/24 07:30:37;;;;;;;;;;;;;;;12.72;100.00;101190.75;5095687;28;19970;-34
2022/09/24 07:33:03;;;;;;;;;;;;;;;12.73;100.00;101198.63;5095277;28;19963;-34
2022/09/24 07:35:28;;;;;;;;;;;;;;;12.75;100.00;101196.53;5095402;28;19916;-34
2022/09/24 07:37:57;;;;;;;;;;;;;;;12.77;100.00;101199.00;5095122;28;19969;-34
2022/09/24 07:40:23;;;;;;;;;;;;;;;12.77;100.00;101201.72;5095073;28;19916;-34
2022/09/24 07:42:48;;;;;;;;;;;;;;;12.80;100.00;101203.97;5095396;28;20320;-34
2022/09/24 07:45:16;;;;;;;;;;;;;;;12.82;100.00;101212.69;5094706;28;19920;-34
2022/09/24 07:47:41;;;;;;;;;;;;;;;12.84;100.00;101216.00;5094945;28;20369;-34
2022/09/24 07:50:06;;;;;;;;;;;;;;;12.86;100.00;101213.84;5094870;28;19922;-34
2022/09/24 07:52:31;;;;;;;;;;;;;;;12.86;100.00;101211.16;5094651;28;19916;-34
2022/09/24 07:54:57;;;;;;;;;;;;;;;12.88;100.00;101222.56;5094838;28;20015;-34
2022/09/24 07:57:22;;;;;;;;;;;;;;;12.87;100.00;101216.31;5094839;28;20023;-34
2022/09/24 07:59:47;;;;;;;;;;;;;;;12.86;100.00;101220.09;5095556;28;19927;-34
2022/09/24 08:02:14;;;;;;;;;;;;;;;12.87;100.00;101215.50;5094558;28;19952;-34
2022/09/24 08:04:39;;;;;;;;;;;;;;;12.86;100.00;101222.00;5094015;28;19920;-34
2022/09/24 08:07:05;;;;;;;;;;;;;;;12.87;100.00;101215.50;5094649;28;20301;-34
2022/09/24 08:09:31;;;;;;;;;;;;;;;12.91;100.00;101221.28;5094790;28;19974;-34
2022/09/24 08:11:57;;;;;;;;;;;;;;;12.93;100.00;101214.53;5094008;28;19920;-34
2022/09/24 08:14:22;;;;;;;;;;;;;;;12.95;100.00;101217.03;5094201;28;19968;-34
2022/09/24 08:16:48;;;;;;;;;;;;;;;12.93;100.00;101225.41;5093756;28;19999;-34
2022/09/24 08:19:13;;;;;;;;;;;;;;;12.95;100.00;101227.91;5094661;28;19927;-34
2022/09/24 08:21:38;;;;;;;;;;;;;;;12.98;100.00;101227.41;5093977;28;19920;-34
2022/09/24 08:24:04;;;;;;;;;;;;;;;12.99;100.00;101229.91;5075947;28;20431;-34
2022/09/24 08:26:29;;;;;;;;;;;;;;;13.03;100.00;101230.22;5094321;28;20364;-34
2022/09/24 08:28:54;;;;;;;;;;;;;;;13.04;100.00;101237.34;5094018;28;19919;-34
2022/09/24 08:31:19;;;;;;;;;;;;;;;13.03;100.00;101239.22;5094264;28;20371;-34
2022/09/24 08:33:49;;;;;;;;;;;;;;;13.03;100.00;101249.25;5094251;28;19920;-34
2022/09/24 08:36:14;;;;;;;;;;;;;;;13.01;100.00;101241.34;5094008;28;19978;-34
2022/09/24 08:38:39;;;;;;;;;;;;;;;13.02;100.00;101237.56;5094425;28;19916;-34
2022/09/24 08:41:05;;;;;;;;;;;;;;;13.06;100.00;101246.06;5093491;28;20291;-34
2022/09/24 08:43:43;;;;;;;;;;;;;;;13.04;100.00;101238.16;5093743;28;19973;-35
2022/09/24 08:49:00;;;;;;;;;;;;;;;13.07;100.00;101248.53;5094274;28;19922;-34
2022/09/24 08:51:27;;;;;;;;;;;;;;;13.06;100.00;101246.88;5093456;28;19916;-35
2022/09/24 08:54:00;;;;;;;;;;;;;;;13.07;100.00;101248.53;5094108;28;19922;-33
2022/09/24 08:56:28;;;;;;;;;;;;;;;13.05;100.00;101253.38;5075778;28;19959;-34
2022/09/24 08:59:13;;;;;;;;;;;;;;;13.07;100.00;101251.25;5093957;28;19920;-35
2022/09/24 09:01:44;;;;;;;;;;;;;;;13.10;100.00;101247.25;5093243;28;20006;-34
2022/09/24 09:04:15;;;;;;;;;;;;;;;13.09;100.00;101254.56;5093264;28;20360;-34
2022/09/24 09:06:46;;;;;;;;;;;;;;;13.10;100.00;101258.09;5093339;28;20372;-34
2022/09/24 09:09:16;;;;;;;;;;;;;;;13.10;100.00;101258.94;5094224;28;20371;-34
2022/09/24 09:11:45;;;;;;;;;;;;;;;13.11;100.00;101255.13;5093823;28;19920;-34
2022/09/24 09:14:22;;;;;;;;;;;;;;;13.13;100.00;101263.91;5093462;28;19916;-34
2022/09/24 09:17:02;;;;;;;;;;;;;;;13.14;100.00;101265.53;5093879;28;20360;-35
2022/09/24 09:19:32;;;;;;;;;;;;;;;13.15;100.00;101259.03;5093243;28;19916;-34
2022/09/24 09:22:04;;;;;;;;;;;;;;;13.15;100.00;101269.91;5093278;28;19960;-35
2022/09/24 09:24:39;;;;;;;;;;;;;;;13.15;100.00;101275.34;5094011;28;20280;-35
2022/09/24 09:27:09;;;;;;;;;;;;;;;13.21;100.00;101275.44;5093856;28;19942;-34
2022/09/24 09:29:35;;;;;;;;;;;;;;;13.23;100.00;101262.50;5079486;28;19919;-34
2022/09/24 09:32:35;;;;;;;;;;;;;;;13.25;100.00;101279.38;5098247;28;19999;-34
2022/09/24 09:35:13;;;;;;;;;;;;;;;13.29;100.00;101272.41;5035207;28;19917;-34
2022/09/24 09:37:41;;;;;;;;;;;;;;;13.30;100.00;101266.72;5035722;28;20250;-35
2022/09/24 09:40:25;;;;;;;;;;;;;;;13.31;100.00;101270.25;5035079;28;19917;-35
2022/09/24 09:42:51;;;;;;;;;;;;;;;13.33;100.00;101268.16;5035013;28;19917;-35
2022/09/24 09:45:19;;;;;;;;;;;;;;;13.37;100.00;101267.44;5034790;28;19967;-34
2022/09/24 09:47:46;;;;;;;;;;;;;;;13.40;100.00;101272.38;5035285;28;19975;-35
2022/09/24 09:50:13;;;;;;;;;;;;;;;13.43;100.00;101268.38;5034863;28;19967;-34
2022/09/24 09:52:38;;;;;;;;;;;;;;;13.48;100.00;101273.09;5034752;28;19917;-34
2022/09/24 09:55:05;;;;;;;;;;;;;;;13.53;100.00;101268.56;5034404;28;19940;-34
2022/09/24 09:57:31;;;;;;;;;;;;;;;13.60;100.00;101274.69;5035306;28;20015;-35
2022/09/24 09:59:56;;;;;;;;;;;;;;;13.67;100.00;101274.56;5034022;28;20091;-34
2022/09/24 10:02:30;;;;;;;;;;;;;;;13.71;100.00;101272.16;5034418;28;19924;-34
2022/09/24 10:04:59;;;;;;;;;;;;;;;13.74;100.00;101274.41;5034942;28;19918;-34
2022/09/24 10:07:25;;;;;;;;;;;;;;;13.77;100.00;101285.63;5034382;28;19924;-35
2022/09/24 10:10:01;;;;;;;;;;;;;;;13.83;100.00;101270.25;5070560;28;20374;-35
2022/09/24 10:12:26;;;;;;;;;;;;;;;13.91;100.00;101269.88;5076567;28;19916;-34
2022/09/24 10:14:56;;;;;;;;;;;;;;;13.96;100.00;101272.69;5076164;28;19923;-34
2022/09/24 10:17:24;;;;;;;;;;;;;;;14.01;100.00;101271.97;5076257;28;20430;-35
2022/09/24 10:19:49;;;;;;;;;;;;;;;14.02;100.00;101269.00;5076313;28;19916;-35
2022/09/24 10:22:25;;;;;;;;;;;;;;;14.06;100.00;101272.06;5087386;28;20422;-35
2022/09/24 10:24:52;;;;;;;;;;;;;;;14.09;100.00;101266.94;5096171;28;19973;-35
2022/09/24 10:27:31;;;;;;;;;;;;;;;14.11;100.00;101270.25;5096755;28;19916;-34
2022/09/24 10:32:41;;;;;;;;;;;;;;;14.05;100.00;101270.38;5096509;28;19927;-34
2022/09/24 10:35:20;;;;;;;;;;;;;;;14.00;100.00;101271.09;5096246;28;20268;-35
2022/09/24 10:37:52;;;;;;;;;;;;;;;13.99;100.00;101271.38;5096164;28;20382;-35
2022/09/24 10:40:23;;;;;;;;;;;;;;;13.98;100.00;101275.16;5095043;28;19938;-35
2022/09/24 10:42:58;;;;;;;;;;;;;;;13.95;100.00;101273.72;5096998;28;19970;-34
2022/09/24 10:45:31;;;;;;;;;;;;;;;13.97;100.00;101270.78;5096331;28;20314;-34
2022/09/24 10:48:13;;;;;;;;;;;;;;;14.01;100.00;101272.78;5096857;28;19916;-34
2022/09/24 10:50:42;;;;;;;;;;;;;;;14.06;100.00;101274.78;5096520;28;19923;-34
2022/09/24 10:53:24;;;;;;;;;;;;;;;14.11;100.00;101277.59;5096866;28;19920;-35
2022/09/24 10:55:57;;;;;;;;;;;;;;;14.17;100.00;101277.44;5078278;28;19916;-35
2022/09/24 10:58:32;;;;;;;;;;;;;;;14.22;100.00;101273.97;5096251;28;19920;-35
2022/09/24 11:01:06;;;;;;;;;;;;;;;14.27;100.00;101278.69;5096324;28;19963;-35
2022/09/24 11:03:44;;;;;;;;;;;;;;;14.30;100.00;101278.16;5096125;28;19916;-35
2022/09/24 11:06:18;;;;;;;;;;;;;;;14.32;100.00;101282.31;5095816;28;19919;-35
2022/09/24 11:08:56;;;;;;;;;;;;;;;14.35;100.00;101283.72;5096230;28;20364;-35
2022/09/24 11:11:40;;;;;;;;;;;;;;;14.38;100.00;101281.31;5095464;28;19920;-35
2022/09/24 11:14:08;;;;;;;;;;;;;;;14.41;100.00;101288.19;5095425;28;19999;-35
2022/09/24 11:16:46;;;;;;;;;;;;;;;14.42;100.00;101287.09;5095443;28;19919;-35
2022/09/24 11:19:11;;;;;;;;;;;;;;;14.43;100.00;101294.19;5095551;28;19916;-35
2022/09/24 11:21:36;;;;;;;;;;;;;;;14.44;100.00;101287.69;5095625;28;19916;-35
2022/09/24 11:24:13;;;;;;;;;;;;;;;14.45;100.00;101286.63;5095574;28;20391;-35
2022/09/24 11:26:50;;;;;;;;;;;;;;;14.48;100.00;101288.88;5077513;28;20280;-35
2022/09/24 11:29:24;;;;;;;;;;;;;;;14.48;100.00;101291.59;5095111;28;20368;-35
2022/09/24 11:32:05;;;;;;;;;;;;;;;14.43;100.00;101295.00;5095304;28;19916;-35
2022/09/24 11:34:54;;;;;;;;;;;;;;;14.41;100.00;101296.34;5095456;28;19920;-35
2022/09/24 11:37:26;;;;;;;;;;;;;;;14.43;100.00;101292.28;5094667;28;20430;-35
2022/09/24 11:40:00;;;;;;;;;;;;;;;14.43;100.00;101296.91;5094590;28;19920;-35
2022/09/24 11:42:30;;;;;;;;;;;;;;;14.41;100.00;101290.91;5095103;28;19916;-35
2022/09/24 11:44:58;;;;;;;;;;;;;;;14.39;100.00;101288.41;5094114;28;19946;-35
2022/09/24 11:47:35;;;;;;;;;;;;;;;14.39;100.00;101290.31;5095047;28;19963;-35
2022/09/24 11:50:03;;;;;;;;;;;;;;;14.40;100.00;101292.81;5095331;28;19916;-35
2022/09/24 11:52:38;;;;;;;;;;;;;;;14.42;100.00;101290.66;5095135;28;19966;-35
2022/09/24 11:55:13;;;;;;;;;;;;;;;14.49;100.00;101290.50;5094468;28;19924;-35
2022/09/24 11:57:40;;;;;;;;;;;;;;;14.54;100.00;101287.06;5094813;28;20340;-35
2022/09/24 12:00:16;;;;;;;;;;;;;;;14.58;100.00;101286.31;5094803;28;20318;-35
2022/09/24 12:03:08;;;;;;;;;;;;;;;14.63;100.00;101289.13;5094932;28;19920;-35
2022/09/24 12:05:38;;;;;;;;;;;;;;;14.64;100.00;101287.22;5031871;28;19921;-34
2022/09/24 12:08:12;;;;;;;;;;;;;;;14.64;100.00;101285.34;5032727;28;20016;-35
2022/09/24 12:10:58;;;;;;;;;;;;;;;14.65;99.89;101284.28;5031990;28;19925;-35
2022/09/24 12:13:44;;;;;;;;;;;;;;;14.66;99.84;101277.75;5027865;28;20024;-35
2022/09/24 12:16:14;;;;;;;;;;;;;;;14.68;99.67;101281.03;5031399;28;20285;-34
2022/09/24 12:18:44;;;;;;;;;;;;;;;14.72;99.44;101275.09;5032358;28;19917;-34
2022/09/24 12:21:13;;;;;;;;;;;;;;;14.72;99.21;101278.66;5031834;28;19917;-35
2022/09/24 12:23:40;;;;;;;;;;;;;;;14.75;99.25;101280.06;5032384;28;20294;-35
2022/09/24 12:26:06;;;;;;;;;;;;;;;14.77;99.20;101284.19;5032146;28;19967;-34
2022/09/24 12:34:46;;;;;;;;;;;;;;;14.75;98.13;101285.50;5012177;28;20435;-34
2022/09/24 12:37:15;;;;;;;;;;;;;;;14.73;98.62;101285.75;4976785;28;20001;-35
2022/09/24 12:39:56;;;;;;;;;;;;;;;14.74;98.85;101284.69;4972717;28;19929;-35
2022/09/24 12:42:24;;;;;;;;;;;;;;;14.77;98.58;101289.63;4993038;28;19960;-34
2022/09/24 12:44:54;;;;;;;;;;;;;;;14.80;98.07;101291.03;5031335;28;19921;-35
2022/09/24 12:47:22;;;;;;;;;;;;;;;14.80;98.12;101285.59;5030199;28;20361;-34
2022/09/24 12:49:51;;;;;;;;;;;;;;;14.84;98.63;101289.47;5031060;28;19917;-34
2022/09/24 12:52:34;;;;;;;;;;;;;;;14.85;97.58;101285.66;5031968;28;19920;-34
2022/09/24 12:55:01;;;;;;;;;;;;;;;14.87;98.12;101280.78;5031148;28;19917;-34
2022/09/24 12:57:28;;;;;;;;;;;;;;;14.87;96.88;101287.06;5031867;28;19917;-34
2022/09/24 12:59:58;;;;;;;;;;;;;;;14.89;97.46;101287.66;5031384;28;19931;-34